Time;durP1;ratioP1;P1;durP2;ratioP2;P2;SDS_P1;SDS_P2;PMS_P1;PMS_P2;Temp;Humidity;BMP_temperature;BMP_pressure;BME280_temperature;BME280_humidity;BME280_pressure;Samples;Min_cycle;Max_cycle;Signal;HPM_P1;HPM_P2
2023/07/24 00:00:51;;;;;;;12.58;7.40;;;;;;;24.97;47.38;99982.32;1792248;80;21300;-80
2023/07/24 00:03:59;;;;;;;10.78;7.85;;;;;;;24.89;47.59;99978.67;1791959;80;21304;-80
2023/07/24 00:07:04;;;;;;;12.15;6.95;;;;;;;24.57;48.17;99974.19;1792215;80;21307;-80
2023/07/24 00:10:11;;;;;;;13.53;7.25;;;;;;;24.49;48.46;99974.72;1792122;80;21300;-80
2023/07/24 00:13:17;;;;;;;10.68;7.37;;;;;;;24.49;48.63;99974.72;1792100;80;21288;-80
2023/07/24 00:16:23;;;;;;;9.33;7.70;;;;;;;24.13;49.45;99973.73;1792019;80;21914;-79
2023/07/24 00:19:28;;;;;;;12.88;8.10;;;;;;;24.25;49.33;99972.12;1790758;80;21325;-80
2023/07/24 00:22:34;;;;;;;13.50;7.70;;;;;;;24.20;49.43;99975.17;1792192;80;21291;-80
2023/07/24 00:25:40;;;;;;;14.30;8.18;;;;;;;24.50;48.94;99978.35;1792195;80;21284;-80
2023/07/24 00:28:46;;;;;;;11.95;8.08;;;;;;;24.88;47.91;99975.04;1791738;80;21327;-80
2023/07/24 00:31:52;;;;;;;10.88;7.78;;;;;;;24.76;48.08;99981.48;1792076;80;21316;-80
2023/07/24 00:35:00;;;;;;;10.88;8.48;;;;;;;24.80;47.99;99978.98;1792182;80;21277;-80
2023/07/24 00:38:07;;;;;;;17.67;8.50;;;;;;;24.83;47.68;99982.59;1793201;79;21327;-80
2023/07/24 00:41:12;;;;;;;15.40;8.90;;;;;;;25.02;47.17;99978.69;1795206;80;21300;-80
2023/07/24 00:44:19;;;;;;;15.25;9.30;;;;;;;25.04;47.20;99980.09;1795267;80;21302;-80
2023/07/24 00:47:25;;;;;;;10.98;9.23;;;;;;;24.92;47.31;99974.77;1795256;80;21324;-80
2023/07/24 00:50:32;;;;;;;13.13;8.55;;;;;;;24.95;47.20;99978.98;1793774;80;21351;-80
2023/07/24 00:53:38;;;;;;;11.18;8.30;;;;;;;25.11;47.05;99986.27;1794701;80;21351;-80
2023/07/24 00:56:44;;;;;;;11.95;8.68;;;;;;;25.28;46.60;99983.76;1795318;80;21303;-80
2023/07/24 00:59:50;;;;;;;14.35;8.75;;;;;;;25.06;46.96;99980.64;1794592;80;21303;-80
2023/07/24 01:02:56;;;;;;;13.90;9.60;;;;;;;24.74;47.49;99976.14;1794495;80;21331;-80
2023/07/24 01:06:03;;;;;;;16.55;8.83;;;;;;;23.96;49.42;99977.60;1795257;80;21289;-80
2023/07/24 01:09:10;;;;;;;15.35;9.05;;;;;;;24.09;49.38;99974.87;1795629;80;21363;-80
2023/07/24 01:12:36;;;;;;;15.75;9.48;;;;;;;24.15;49.38;99978.52;1795291;80;21335;-80
2023/07/24 01:15:57;;;;;;;14.13;9.15;;;;;;;24.12;49.40;99982.68;1795346;80;21327;-80
2023/07/24 01:19:02;;;;;;;14.18;9.08;;;;;;;24.25;49.25;99978.54;1795225;80;21296;-80
2023/07/24 01:22:36;;;;;;;13.08;9.33;;;;;;;24.49;48.92;99981.70;1795258;80;21296;-80
2023/07/24 01:25:42;;;;;;;12.50;9.60;;;;;;;24.45;48.89;99986.17;1793870;80;21292;-80
2023/07/24 01:28:48;;;;;;;18.65;11.35;;;;;;;24.61;48.59;99983.70;1795052;80;21288;-80
2023/07/24 01:31:54;;;;;;;15.25;11.60;;;;;;;24.57;48.64;99990.12;1743296;82;21304;-80
2023/07/24 01:35:00;;;;;;;16.62;11.90;;;;;;;24.83;48.30;99980.63;1744387;82;21883;-80
2023/07/24 01:38:07;;;;;;;17.82;11.60;;;;;;;25.04;47.92;99988.49;1714976;83;21311;-80
2023/07/24 01:41:13;;;;;;;16.10;11.12;;;;;;;25.03;47.90;99985.42;1743098;82;21954;-80
2023/07/24 01:44:19;;;;;;;17.02;11.53;;;;;;;24.90;48.00;99990.17;1714618;83;21360;-80
2023/07/24 01:47:25;;;;;;;17.00;11.88;;;;;;;25.10;47.32;99980.96;1721835;82;22021;-80
2023/07/24 01:50:32;;;;;;;16.32;11.25;;;;;;;24.89;47.77;99987.06;1714278;83;21375;-80
2023/07/24 01:53:38;;;;;;;13.38;10.60;;;;;;;25.03;47.20;99985.42;1743063;82;21339;-80
2023/07/24 01:56:44;;;;;;;14.58;10.90;;;;;;;25.01;47.00;99993.23;1713638;83;21315;-80
2023/07/24 01:59:49;;;;;;;18.65;11.80;;;;;;;24.82;47.23;99997.14;1743804;82;21315;-80
2023/07/24 02:02:57;;;;;;;17.15;11.43;;;;;;;24.72;47.27;99995.73;1713695;83;21284;-80
2023/07/24 02:06:03;;;;;;;15.28;10.65;;;;;;;24.45;47.77;99998.75;1744426;82;21338;-80
2023/07/24 02:09:09;;;;;;;18.95;12.20;;;;;;;24.50;47.86;99995.96;1714937;83;21209;-80
2023/07/24 02:12:15;;;;;;;24.70;12.58;;;;;;;24.35;48.26;100005.68;1744486;82;21343;-80
2023/07/24 02:15:20;;;;;;;27.27;13.10;;;;;;;24.41;48.39;100000.41;1714635;83;21327;-81
2023/07/24 02:18:26;;;;;;;22.87;13.48;;;;;;;24.47;48.36;99999.33;1743237;82;21311;-81
2023/07/24 02:21:32;;;;;;;21.80;12.82;;;;;;;24.43;48.47;100004.62;1714025;83;21362;-81
2023/07/24 02:24:38;;;;;;;28.15;14.20;;;;;;;24.35;48.74;100009.87;1744633;82;21315;-81
2023/07/24 02:27:44;;;;;;;26.07;15.63;;;;;;;24.39;48.63;100018.02;1715023;83;21347;-81
2023/07/24 02:30:51;;;;;;;24.25;13.00;;;;;;;23.97;49.53;100018.94;1743242;82;21347;-81
2023/07/24 02:33:57;;;;;;;19.15;10.82;;;;;;;24.33;49.15;100016.31;1715132;83;21323;-81
2023/07/24 02:37:04;;;;;;;16.48;11.48;;;;;;;24.51;48.87;100013.01;1744465;82;21862;-81
2023/07/24 02:40:10;;;;;;;14.87;10.60;;;;;;;24.72;48.41;100021.74;1717642;83;21332;-81
2023/07/24 02:43:15;;;;;;;15.75;10.68;;;;;;;24.95;47.82;100021.78;1738933;82;21319;-81
2023/07/24 02:46:20;;;;;;;19.23;11.78;;;;;;;25.11;47.52;100015.65;1738018;82;21359;-80
2023/07/24 02:49:25;;;;;;;18.70;11.10;;;;;;;25.36;47.15;100017.63;1738923;82;21304;-80
2023/07/24 02:52:31;;;;;;;19.00;11.88;;;;;;;25.80;46.50;100020.37;1738910;82;21308;-81
2023/07/24 02:55:37;;;;;;;23.35;11.35;;;;;;;25.99;45.96;100018.63;1739451;82;21972;-80
2023/07/24 02:58:43;;;;;;;17.85;11.50;;;;;;;26.32;45.23;100023.27;1738828;82;21933;-81
2023/07/24 03:01:47;;;;;;;19.17;9.95;;;;;;;26.61;44.64;100021.45;1737843;82;21363;-80
2023/07/24 03:04:53;;;;;;;17.62;10.75;;;;;;;26.72;44.17;100018.88;1737437;82;21312;-80
2023/07/24 03:07:59;;;;;;;16.48;11.20;;;;;;;27.05;43.38;100013.56;1737468;82;21320;-81
2023/07/24 03:11:04;;;;;;;18.48;11.68;;;;;;;27.17;43.00;100020.25;1738496;82;21355;-80
2023/07/24 03:14:09;;;;;;;19.00;10.63;;;;;;;27.09;43.09;100019.47;1738805;82;21311;-80
2023/07/24 03:17:14;;;;;;;17.77;12.03;;;;;;;27.05;43.23;100019.17;1737747;82;22648;-81
2023/07/24 03:20:25;;;;;;;17.02;11.90;;;;;;;27.32;42.85;100027.13;1738778;82;21315;-80
2023/07/24 03:23:31;;;;;;;20.35;13.72;;;;;;;27.17;43.06;100026.70;1721532;83;21359;-81
2023/07/24 03:26:36;;;;;;;32.30;15.55;;;;;;;27.50;42.95;100028.38;1721493;83;21322;-81
2023/07/24 03:29:41;;;;;;;30.55;15.43;;;;;;;27.78;42.20;100039.94;1721376;83;21328;-81
2023/07/24 03:32:48;;;;;;;23.20;14.70;;;;;;;28.00;41.62;100034.07;1720102;83;21948;-81
2023/07/24 03:35:55;;;;;;;30.70;14.95;;;;;;;28.00;41.71;100040.27;1721378;83;21311;-80
2023/07/24 03:39:02;;;;;;;25.85;13.95;;;;;;;28.06;41.68;100036.82;1721498;83;21307;-80
2023/07/24 03:42:09;;;;;;;26.33;14.55;;;;;;;28.08;41.70;100038.17;1716915;83;21922;-81
2023/07/24 03:45:15;;;;;;;34.00;17.10;;;;;;;28.14;41.44;100038.98;1717002;83;21335;-80
2023/07/24 03:48:21;;;;;;;35.00;18.12;;;;;;;28.45;40.89;100043.66;1717034;83;21323;-80
2023/07/24 03:51:26;;;;;;;41.48;20.77;;;;;;;28.40;41.17;100039.52;1716888;83;21359;-82
2023/07/24 03:54:32;;;;;;;45.12;21.70;;;;;;;28.52;41.14;100035.70;1717093;83;21347;-80
2023/07/24 03:57:37;;;;;;;32.08;19.75;;;;;;;28.70;40.84;100037.70;1715710;83;21332;-80
2023/07/24 04:00:43;;;;;;;26.12;18.25;;;;;;;28.45;41.37;100036.63;1716884;83;21343;-80
2023/07/24 04:03:48;;;;;;;35.28;16.12;;;;;;;28.53;41.23;100042.42;1716026;83;21394;-80
2023/07/24 04:06:54;;;;;;;21.07;14.50;;;;;;;28.69;41.08;100048.66;1716940;83;21347;-80
2023/07/24 04:09:47;;;;;;;;;;;;;;;28.52;41.33;100046.95;1719585;83;21323;-81
2023/07/24 04:12:52;;;;;;;20.45;13.62;;;;;;;28.34;41.71;100048.59;1715549;83;20291;-81
2023/07/24 04:15:39;;;;;;;30.48;16.77;;;;;;;28.59;41.37;100044.59;1717140;83;21335;-81
2023/07/24 04:18:31;;;;;;;26.77;16.62;;;;;;;28.91;40.55;100043.85;1715789;83;21367;-81
2023/07/24 04:21:17;;;;;;;41.75;19.02;;;;;;;28.91;40.70;100045.26;1717006;83;21922;-81
2023/07/24 04:24:10;;;;;;;50.17;21.77;;;;;;;28.74;40.70;100043.53;1717186;83;21866;-80
2023/07/24 04:26:55;;;;;;;57.00;23.50;;;;;;;28.93;40.38;100040.72;1717084;83;21317;-81
2023/07/24 04:29:48;;;;;;;59.90;26.20;;;;;;;29.08;39.65;100037.72;1715664;83;21221;-81
2023/07/24 04:32:55;;;;;;;50.12;22.77;;;;;;;29.35;39.36;100043.17;1716166;83;21363;-79
2023/07/24 04:36:03;;;;;;;39.40;19.60;;;;;;;29.59;38.82;100041.66;1715755;83;21327;-81
2023/07/24 04:39:09;;;;;;;38.92;17.60;;;;;;;29.49;38.86;100045.47;1715992;83;21312;-81
2023/07/24 04:42:15;;;;;;;36.58;16.90;;;;;;;29.61;38.75;100045.86;1716935;83;21347;-81
2023/07/24 04:45:20;;;;;;;47.73;17.25;;;;;;;29.71;37.82;100041.44;1716982;83;21890;-81
2023/07/24 04:48:27;;;;;;;39.27;16.05;;;;;;;29.94;37.35;100051.45;1716019;83;21355;-80
2023/07/24 04:51:32;;;;;;;33.42;17.10;;;;;;;30.15;36.89;100044.84;1717000;83;21323;-81
2023/07/24 04:54:39;;;;;;;31.60;18.42;;;;;;;30.28;36.85;100036.38;1717611;83;21379;-81
2023/07/24 04:57:45;;;;;;;31.93;16.45;;;;;;;30.59;36.23;100033.49;1717024;83;21913;-81
2023/07/24 05:00:51;;;;;;;26.20;14.95;;;;;;;30.63;36.15;100035.37;1717073;83;21343;-80
2023/07/24 05:03:57;;;;;;;28.27;14.55;;;;;;;30.64;36.01;100038.44;1715500;83;21866;-81
2023/07/24 05:07:03;;;;;;;24.82;13.93;;;;;;;30.95;35.80;100037.75;1737004;82;21307;-81
2023/07/24 05:13:08;;;;;;;27.52;14.25;;;;;;;31.13;35.18;100031.67;1715680;83;21371;-81
2023/07/24 05:16:13;;;;;;;26.37;15.27;;;;;;;31.15;35.07;100034.45;1717330;83;21338;-80
2023/07/24 05:19:19;;;;;;;25.68;14.70;;;;;;;30.97;35.47;100037.70;1730110;82;21363;-80
2023/07/24 05:22:25;;;;;;;34.35;15.00;;;;;;;30.92;36.16;100027.11;1734956;82;21312;-80
2023/07/24 05:25:31;;;;;;;17.82;11.90;;;;;;;31.13;35.44;100030.27;1740719;82;21296;-80
2023/07/24 05:28:38;;;;;;;16.77;9.85;;;;;;;31.53;35.17;100034.92;1743533;82;21324;-80
2023/07/24 05:31:44;;;;;;;16.70;10.38;;;;;;;31.51;34.56;100030.73;1746691;82;21308;-80
2023/07/24 05:34:48;;;;;;;20.50;10.40;;;;;;;31.59;34.77;100031.95;1738611;82;21322;-80
2023/07/24 05:37:55;;;;;;;22.95;10.53;;;;;;;31.61;34.69;100027.63;1737999;82;21312;-81
2023/07/24 05:41:01;;;;;;;18.70;10.68;;;;;;;31.54;34.46;100026.69;1738445;82;21342;-80
2023/07/24 05:43:53;;;;;;;15.95;8.93;;;;;;;31.35;35.28;100023.23;1742622;82;21922;-80
2023/07/24 05:46:58;;;;;;;11.75;8.13;;;;;;;31.53;34.60;100027.02;1718958;83;21337;-80
2023/07/24 05:49:57;;;;;;;14.00;8.65;;;;;;;32.18;34.11;100024.92;1719820;83;21379;-80
2023/07/24 05:53:03;;;;;;;16.75;7.33;;;;;;;32.36;33.58;100010.84;1715359;82;21881;-80
2023/07/24 05:56:09;;;;;;;13.03;6.92;;;;;;;32.48;32.96;100018.98;1708111;82;21245;-80
2023/07/24 05:59:14;;;;;;;10.98;5.85;;;;;;;32.66;32.78;100024.69;1704770;82;21927;-80
2023/07/24 06:02:19;;;;;;;7.25;4.65;;;;;;;32.37;32.92;100022.44;1716170;82;21382;-81
2023/07/24 06:05:25;;;;;;;10.88;5.62;;;;;;;32.36;31.64;100026.41;1732151;82;22009;-80
2023/07/24 06:08:31;;;;;;;7.62;5.60;;;;;;;32.37;31.77;100022.44;1726864;82;21350;-80
2023/07/24 06:11:31;;;;;;;7.53;4.60;;;;;;;32.60;31.23;100023.16;1726382;82;21330;-81
2023/07/24 06:14:24;;;;;;;12.58;4.80;;;;;;;32.50;30.38;100027.97;1728266;82;21351;-81
2023/07/24 06:17:30;;;;;;;6.65;4.42;;;;;;;32.66;30.02;100021.86;1735365;81;21271;-81
2023/07/24 06:20:34;;;;;;;5.20;3.90;;;;;;;32.76;30.46;100019.53;1705822;83;21327;-80
2023/07/24 06:23:39;;;;;;;8.80;3.98;;;;;;;33.06;29.31;100021.14;1705869;83;22423;-80
2023/07/24 06:26:45;;;;;;;9.33;4.47;;;;;;;33.05;29.47;100018.06;1695377;83;21346;-80
2023/07/24 06:29:50;;;;;;;10.05;3.92;;;;;;;33.32;29.45;100021.13;1693569;83;21335;-80
2023/07/24 06:32:58;;;;;;;4.22;3.10;;;;;;;32.98;28.15;100017.16;1729858;82;21323;-81
2023/07/24 06:36:04;;;;;;;3.92;3.05;;;;;;;33.01;28.79;100026.98;1739535;82;21331;-81
2023/07/24 06:39:09;;;;;;;4.70;3.20;;;;;;;33.28;28.48;100024.39;1738132;82;21307;-80
2023/07/24 06:42:14;;;;;;;4.08;3.30;;;;;;;33.35;27.58;100021.03;1708985;84;22265;-80
2023/07/24 06:45:15;;;;;;;5.85;3.80;;;;;;;33.32;28.16;100019.13;1706393;82;21351;-80
2023/07/24 06:48:21;;;;;;;3.50;3.00;;;;;;;33.36;28.17;100025.52;1751343;81;21319;-81
2023/07/24 06:51:26;;;;;;;5.47;2.80;;;;;;;33.69;27.47;100022.42;1741675;80;21307;-80
2023/07/24 06:54:31;;;;;;;4.75;3.60;;;;;;;33.73;27.50;100027.64;1743032;82;21383;-80
2023/07/24 06:57:38;;;;;;;7.15;3.55;;;;;;;33.44;27.75;100020.47;1746082;81;21916;-80
2023/07/24 07:00:42;;;;;;;6.30;3.92;;;;;;;33.45;27.53;100014.45;1713516;82;21311;-81
2023/07/24 07:03:48;;;;;;;5.05;3.87;;;;;;;33.68;27.95;100017.90;1732963;82;21344;-81
2023/07/24 07:06:54;;;;;;;6.42;3.52;;;;;;;33.73;27.55;100010.63;1733267;82;22527;-81
2023/07/24 07:10:00;;;;;;;4.12;3.37;;;;;;;33.87;27.25;100024.59;1731613;81;21320;-81
2023/07/24 07:12:58;;;;;;;5.80;3.75;;;;;;;33.69;26.38;100018.17;1744711;81;21310;-81
2023/07/24 07:16:03;;;;;;;6.78;3.30;;;;;;;33.42;27.13;100027.03;1739479;80;21345;-81
2023/07/24 07:19:09;;;;;;;9.98;3.85;;;;;;;33.86;26.85;100022.11;1721879;82;21316;-81
2023/07/24 07:22:14;;;;;;;4.22;3.80;;;;;;;33.65;26.63;100020.02;1728736;81;21327;-81
2023/07/24 07:25:21;;;;;;;18.62;3.98;;;;;;;33.53;27.11;100014.20;1738836;82;21311;-81
2023/07/24 07:28:27;;;;;;;4.90;3.33;;;;;;;33.44;27.34;100021.30;1750224;82;21350;-81
2023/07/24 07:31:33;;;;;;;6.45;2.95;;;;;;;33.58;27.46;100011.17;1725202;82;21193;-81
2023/07/24 07:34:39;;;;;;;5.33;3.25;;;;;;;34.03;27.00;100020.66;1746044;82;22531;-81
2023/07/24 07:37:43;;;;;;;7.40;2.58;;;;;;;34.33;25.92;100022.33;1742208;82;21319;-81
2023/07/24 07:40:49;;;;;;;4.80;2.85;;;;;;;34.31;25.58;100031.78;1730165;82;21318;-80
2023/07/24 07:43:54;;;;;;;6.72;3.08;;;;;;;34.00;25.97;100022.75;1754575;80;21279;-81
2023/07/24 07:47:00;;;;;;;5.03;3.20;;;;;;;33.79;26.40;100018.39;1758251;81;21724;-80
2023/07/24 07:50:07;;;;;;;3.67;3.15;;;;;;;33.55;26.79;100024.63;1749504;81;21275;-80
2023/07/24 07:53:12;;;;;;;9.58;2.98;;;;;;;33.35;26.67;100024.69;1738218;82;21309;-81
2023/07/24 07:56:20;;;;;;;3.25;2.90;;;;;;;33.31;27.02;100024.55;1767774;81;22001;-81
2023/07/24 07:59:27;;;;;;;6.37;2.62;;;;;;;33.28;27.26;100020.97;1737298;82;21974;-81
2023/07/24 08:02:34;;;;;;;5.85;2.92;;;;;;;33.48;27.41;100014.38;1734188;82;21330;-81
2023/07/24 08:05:39;;;;;;;3.65;2.67;;;;;;;33.85;26.45;100019.03;1738986;82;21284;-81
2023/07/24 08:08:44;;;;;;;3.37;2.60;;;;;;;33.96;25.60;100011.23;1768295;81;21327;-81
2023/07/24 08:11:51;;;;;;;6.83;2.58;;;;;;;33.95;26.06;100017.27;1741860;82;22037;-81
2023/07/24 08:14:56;;;;;;;3.92;2.27;;;;;;;33.97;25.88;100016.33;1740565;82;21308;-80
2023/07/24 08:18:02;;;;;;;6.60;2.90;;;;;;;34.03;25.33;100020.06;1726787;82;21328;-82
2023/07/24 08:21:09;;;;;;;5.97;2.27;;;;;;;34.08;24.95;100025.55;1712052;83;21377;-81
2023/07/24 08:24:15;;;;;;;6.47;2.40;;;;;;;34.01;23.58;100015.89;1709832;84;21303;-81
2023/07/24 08:27:22;;;;;;;11.63;2.50;;;;;;;33.88;24.01;100013.52;1711055;83;21315;-81
2023/07/24 08:34:26;;;;;;;;;;;;;;;33.69;24.41;99998.88;1757634;81;21125;-81
2023/07/24 08:37:32;;;;;;;3.37;2.10;;;;;;;33.76;24.77;99997.19;1764959;81;20290;-81
2023/07/24 08:40:39;;;;;;;2.67;2.17;;;;;;;33.70;24.77;100002.81;1750898;81;21307;-81
2023/07/24 08:43:46;;;;;;;2.40;2.00;;;;;;;33.61;23.70;100015.35;1750603;81;22592;-81
2023/07/24 08:46:52;;;;;;;2.58;2.02;;;;;;;33.94;23.85;100004.23;1719958;82;21933;-81
2023/07/24 08:49:58;;;;;;;6.97;2.22;;;;;;;34.17;23.34;100002.81;1730655;82;21301;-81
2023/07/24 08:53:04;;;;;;;4.47;2.40;;;;;;;34.19;23.69;100003.88;1721568;83;22029;-81
2023/07/24 08:56:14;;;;;;;14.50;2.33;;;;;;;34.42;23.21;100008.67;1697401;84;21371;-81
2023/07/24 08:59:20;;;;;;;6.50;2.52;;;;;;;34.35;23.75;100006.39;1729213;82;21339;-81
2023/07/24 09:02:26;;;;;;;5.70;2.70;;;;;;;34.42;23.37;99998.74;1734950;82;21339;-80
2023/07/24 09:05:32;;;;;;;8.18;4.15;;;;;;;34.40;23.94;100011.05;1714310;82;21299;-81
2023/07/24 09:08:42;;;;;;;5.47;3.80;;;;;;;34.15;25.15;99997.22;1731235;82;21319;-81
2023/07/24 09:11:59;;;;;;;6.20;3.72;;;;;;;34.36;24.94;99990.19;1712442;83;21613;-80
2023/07/24 09:15:14;;;;;;;12.20;4.12;;;;;;;34.42;25.23;99994.48;1740883;82;21294;-81
2023/07/24 09:18:19;;;;;;;7.53;4.33;;;;;;;34.41;25.33;99984.31;1724645;83;21348;-80
2023/07/24 09:21:42;;;;;;;5.85;3.50;;;;;;;34.24;25.21;99987.48;1739736;82;21303;-80
2023/07/24 09:24:59;;;;;;;6.35;3.98;;;;;;;34.19;24.46;99991.11;1745274;82;21303;-81
2023/07/24 09:28:07;;;;;;;8.23;3.95;;;;;;;34.62;24.24;99983.76;1692887;83;21637;-81
2023/07/24 09:31:13;;;;;;;5.47;3.72;;;;;;;34.87;24.75;99988.19;1708670;83;21343;-81
2023/07/24 09:34:29;;;;;;;6.62;3.85;;;;;;;34.87;25.03;99986.77;1718884;82;21867;-81
2023/07/24 09:37:41;;;;;;;6.55;3.90;;;;;;;34.65;24.81;99977.98;1731229;82;21918;-81
2023/07/24 09:40:53;;;;;;;5.12;3.75;;;;;;;34.65;24.11;99973.73;1725661;83;21786;-81
2023/07/24 09:44:07;;;;;;;6.95;4.85;;;;;;;34.61;24.30;99963.64;1727153;83;21310;-81
2023/07/24 09:47:12;;;;;;;9.68;5.08;;;;;;;34.69;24.52;99970.45;1726674;83;21326;-81
2023/07/24 09:50:19;;;;;;;9.23;5.35;;;;;;;34.38;24.59;99968.78;1749654;82;21330;-81
2023/07/24 09:53:56;;;;;;;9.88;5.47;;;;;;;34.45;24.83;99960.56;1750439;82;21351;-81
2023/07/24 09:57:01;;;;;;;9.33;5.50;;;;;;;34.60;25.01;99960.56;1751031;82;21370;-80
2023/07/24 10:00:04;;;;;;;9.23;5.40;;;;;;;34.31;25.08;99952.31;1725902;82;21323;-81
2023/07/24 10:03:09;;;;;;;20.48;6.78;;;;;;;34.55;24.54;99956.52;1725879;82;21342;-80
2023/07/24 10:06:17;;;;;;;22.50;6.55;;;;;;;34.63;23.20;99957.05;1749915;82;21314;-80
2023/07/24 10:09:23;;;;;;;11.08;5.70;;;;;;;34.59;23.57;99948.97;1749898;82;21358;-80
2023/07/24 10:12:31;;;;;;;8.03;5.35;;;;;;;34.79;23.83;99946.70;1750108;82;21577;-81
2023/07/24 10:15:37;;;;;;;9.83;5.53;;;;;;;34.98;23.92;99941.97;1750168;82;21363;-81
2023/07/24 10:18:45;;;;;;;14.18;6.00;;;;;;;34.97;23.63;99950.85;1748657;82;21992;-81
2023/07/24 10:21:59;;;;;;;15.18;5.87;;;;;;;34.64;23.71;99947.34;1747841;82;21299;-81
2023/07/24 10:25:04;;;;;;;11.38;5.65;;;;;;;34.64;23.52;99932.31;1748666;82;21291;-81
2023/07/24 10:28:17;;;;;;;11.08;5.83;;;;;;;34.92;23.35;99928.31;1752612;81;21279;-81
2023/07/24 10:31:30;;;;;;;9.73;5.95;;;;;;;34.95;22.82;99926.17;1761255;81;21280;-81
2023/07/24 10:34:46;;;;;;;11.90;5.47;;;;;;;34.94;23.35;99930.20;1735148;82;21918;-81
2023/07/24 10:37:52;;;;;;;10.65;4.65;;;;;;;34.91;23.36;99929.47;1750432;81;21240;-81
2023/07/24 10:41:04;;;;;;;10.53;5.40;;;;;;;34.75;23.54;99927.27;1764253;81;21295;-81
2023/07/24 10:44:09;;;;;;;10.28;5.33;;;;;;;34.84;23.26;99921.52;1725516;82;21291;-81
2023/07/24 10:47:20;;;;;;;7.85;4.12;;;;;;;34.79;23.26;99911.20;1712463;83;21874;-81
2023/07/24 10:50:25;;;;;;;12.03;5.08;;;;;;;34.65;23.74;99909.24;1728961;82;21367;-81
2023/07/24 10:53:31;;;;;;;8.70;4.20;;;;;;;34.68;23.47;99911.39;1798631;79;21312;-81
2023/07/24 10:56:37;;;;;;;5.75;3.62;;;;;;;34.65;23.26;99911.25;1799478;79;21287;-81
2023/07/24 10:59:46;;;;;;;5.08;3.85;;;;;;;35.18;22.84;99910.41;1789652;79;21271;-81
2023/07/24 11:02:53;;;;;;;8.15;4.30;;;;;;;35.38;22.66;99909.27;1769130;81;21919;-81
2023/07/24 11:05:59;;;;;;;6.45;3.80;;;;;;;35.25;22.56;99911.28;1785819;79;21315;-81
2023/07/24 11:09:06;;;;;;;11.78;4.22;;;;;;;35.31;22.64;99907.02;1768856;79;21339;-82
2023/07/24 11:12:26;;;;;;;10.68;4.85;;;;;;;35.68;22.79;99918.48;1794688;79;21319;-81
2023/07/24 11:15:33;;;;;;;7.42;4.50;;;;;;;35.58;22.93;99926.89;1794791;79;21926;-81
2023/07/24 11:18:38;;;;;;;10.13;5.17;;;;;;;35.46;22.94;99914.89;1798904;79;21370;-81
2023/07/24 11:21:46;;;;;;;9.95;3.98;;;;;;;35.20;22.73;99916.59;1780928;79;21311;-81
2023/07/24 11:24:53;;;;;;;7.15;3.87;;;;;;;35.36;22.92;99917.34;1759614;79;21362;-82
2023/07/24 11:27:58;;;;;;;5.90;4.10;;;;;;;35.19;23.12;99914.91;1783890;79;21287;-81
2023/07/24 11:31:03;;;;;;;7.72;3.77;;;;;;;35.19;22.80;99923.44;1784820;79;21303;-81
2023/07/24 11:33:59;;;;;;;5.67;3.75;;;;;;;35.34;22.63;99917.10;1769221;81;21324;-81
2023/07/24 11:37:04;;;;;;;6.60;3.15;;;;;;;35.05;23.01;99904.45;1769516;81;21291;-81
2023/07/24 11:40:14;;;;;;;6.70;2.92;;;;;;;35.19;23.21;99909.82;1767881;81;21342;-80
2023/07/24 11:43:33;;;;;;;2.77;2.47;;;;;;;35.02;22.57;99907.42;1770024;79;21278;-81
2023/07/24 11:46:38;;;;;;;4.00;2.40;;;;;;;35.01;22.64;99903.52;1768278;81;21292;-81
2023/07/24 11:49:48;;;;;;;4.17;2.85;;;;;;;34.98;22.49;99904.20;1768729;80;22658;-81
2023/07/24 11:52:55;;;;;;;5.90;2.70;;;;;;;35.07;22.69;99901.52;1781708;80;21323;-81
2023/07/24 11:56:03;;;;;;;7.47;2.77;;;;;;;34.95;22.47;99896.34;1783061;80;21957;-81
2023/07/24 11:59:20;;;;;;;3.70;2.37;;;;;;;34.99;22.44;99900.17;1782536;80;21346;-81
2023/07/24 12:02:20;;;;;;;3.25;2.30;;;;;;;35.18;22.22;99891.94;1779932;80;21922;-81
2023/07/24 12:05:13;;;;;;;5.25;2.80;;;;;;;35.14;22.18;99891.57;1792528;80;21295;-81
2023/07/24 12:08:19;;;;;;;5.12;2.83;;;;;;;35.14;22.22;99890.98;1793035;80;21351;-81
2023/07/24 12:11:26;;;;;;;4.97;3.40;;;;;;;35.06;22.46;99885.65;1781839;80;21306;-81
2023/07/24 12:14:32;;;;;;;7.87;3.08;;;;;;;35.14;22.63;99880.20;1761467;81;21300;-81
2023/07/24 12:17:39;;;;;;;5.12;3.15;;;;;;;35.19;22.60;99886.48;1761277;81;21330;-80
2023/07/24 12:20:45;;;;;;;5.92;3.20;;;;;;;35.12;22.72;99879.14;1761556;81;21362;-80
2023/07/24 12:23:51;;;;;;;7.37;2.70;;;;;;;35.15;22.61;99877.59;1770462;80;21302;-81
2023/07/24 12:27:00;;;;;;;4.58;2.92;;;;;;;35.09;22.68;99868.47;1783190;80;21354;-80
2023/07/24 12:30:07;;;;;;;3.10;2.45;;;;;;;34.97;22.75;99868.45;1784036;80;21286;-81
2023/07/24 12:33:15;;;;;;;4.80;2.05;;;;;;;34.91;22.24;99857.02;1793885;80;21300;-81
2023/07/24 12:36:20;;;;;;;3.00;2.40;;;;;;;34.74;22.75;99865.97;1793905;80;21299;-81
2023/07/24 12:39:26;;;;;;;2.60;1.92;;;;;;;34.87;22.57;99850.41;1793802;80;21343;-81
2023/07/24 12:42:33;;;;;;;4.08;2.50;;;;;;;34.97;22.59;99855.67;1783684;80;21196;-80
2023/07/24 12:45:40;;;;;;;4.85;2.35;;;;;;;34.85;22.55;99852.16;1788954;80;21280;-81
2023/07/24 12:48:47;;;;;;;3.95;2.12;;;;;;;34.81;22.35;99842.07;1792671;80;22362;-81
2023/07/24 12:51:53;;;;;;;5.33;2.15;;;;;;;35.04;22.52;99844.55;1797365;79;21374;-81
2023/07/24 12:55:01;;;;;;;4.20;1.98;;;;;;;35.00;22.89;99847.84;1800956;79;21177;-81
2023/07/24 12:58:07;;;;;;;2.98;2.22;;;;;;;34.81;22.20;99845.51;1800997;79;21303;-80
2023/07/24 13:01:14;;;;;;;3.60;2.50;;;;;;;34.77;22.01;99841.14;1799722;79;21335;-81
2023/07/24 13:04:21;;;;;;;2.92;2.20;;;;;;;34.60;21.99;99845.56;1795281;79;21290;-81
2023/07/24 13:07:28;;;;;;;4.95;2.00;;;;;;;34.56;22.23;99838.91;1792459;79;21308;-81
2023/07/24 13:10:35;;;;;;;2.70;2.10;;;;;;;34.72;22.10;99837.06;1800676;79;21902;-81
2023/07/24 13:13:41;;;;;;;4.30;1.70;;;;;;;34.69;22.10;99832.11;1801319;79;21287;-81
2023/07/24 13:16:48;;;;;;;5.37;2.05;;;;;;;34.82;22.04;99835.83;1799557;79;21311;-81
2023/07/24 13:19:53;;;;;;;2.20;2.00;;;;;;;34.82;22.04;99835.83;1798563;79;22226;-81
2023/07/24 13:22:58;;;;;;;4.83;2.02;;;;;;;34.71;21.84;99837.43;1788180;79;21850;-81
2023/07/24 13:26:04;;;;;;;3.85;2.00;;;;;;;34.56;21.89;99829.80;1767640;81;21343;-81
2023/07/24 13:29:11;;;;;;;6.70;2.20;;;;;;;34.63;22.80;99825.00;1789430;79;21295;-81
2023/07/24 13:32:11;;;;;;;5.78;1.87;;;;;;;34.72;22.80;99823.46;1797775;79;21284;-80
2023/07/24 13:35:16;;;;;;;5.05;2.45;;;;;;;34.48;22.70;99820.77;1785468;79;21319;-80
2023/07/24 13:38:23;;;;;;;5.40;2.42;;;;;;;34.37;22.79;99817.27;1797233;79;21318;-80
2023/07/24 13:41:30;;;;;;;2.95;2.10;;;;;;;34.38;22.99;99814.66;1792366;79;21888;-81
2023/07/24 13:44:35;;;;;;;3.72;1.98;;;;;;;34.39;23.09;99810.64;1779969;79;21286;-81
2023/07/24 13:47:40;;;;;;;2.95;2.20;;;;;;;34.56;22.87;99808.51;1799927;79;21236;-81
2023/07/24 13:50:46;;;;;;;5.55;2.45;;;;;;;34.64;22.85;99804.52;1801762;79;21303;-81
2023/07/24 13:53:53;;;;;;;5.67;2.90;;;;;;;34.55;22.65;99811.70;1798855;79;21922;-81
2023/07/24 13:57:02;;;;;;;3.12;2.27;;;;;;;34.50;22.58;99810.50;1800785;79;21877;-80
2023/07/24 14:00:00;;;;;;;4.12;2.10;;;;;;;34.32;22.42;99814.88;1801421;79;21277;-80
2023/07/24 14:03:06;;;;;;;1.98;1.75;;;;;;;34.09;22.23;99813.57;1799772;79;21326;-81
2023/07/24 14:06:13;;;;;;;6.00;2.10;;;;;;;34.20;22.71;99810.55;1801223;79;22635;-80
2023/07/24 14:09:19;;;;;;;3.90;2.02;;;;;;;34.13;22.87;99808.88;1799937;79;21295;-81
2023/07/24 14:12:24;;;;;;;4.03;2.20;;;;;;;34.49;22.78;99806.84;1800929;79;21327;-81
2023/07/24 14:15:30;;;;;;;3.45;2.00;;;;;;;34.70;22.39;99802.52;1801672;79;21295;-80
2023/07/24 14:18:36;;;;;;;3.10;2.30;;;;;;;34.63;22.61;99805.12;1801423;79;21272;-80
2023/07/24 14:21:41;;;;;;;2.72;2.10;;;;;;;34.47;22.91;99804.92;1800558;79;21323;-80
2023/07/24 14:24:46;;;;;;;3.12;2.30;;;;;;;34.55;22.80;99800.34;1801379;79;21316;-80
2023/07/24 14:27:46;;;;;;;10.67;2.60;;;;;;;34.45;22.97;99805.02;1785928;78;21894;-80
2023/07/24 14:30:53;;;;;;;3.95;2.45;;;;;;;33.96;22.64;99807.58;1770872;81;21919;-81